createdAt,value
2018-06-12T00:00:05.164Z,87.60
2018-06-12T00:02:35.447Z,87.60
2018-06-12T00:05:05.866Z,87.50
2018-06-12T00:07:41.225Z,87.70
2018-06-12T00:10:11.533Z,87.90
2018-06-12T00:12:41.849Z,88.20
2018-06-12T00:15:12.255Z,88.40
2018-06-12T00:22:42.540Z,88.80
2018-06-12T00:25:12.821Z,88.80
2018-06-12T00:32:42.906Z,89.40
2018-06-12T00:35:13.181Z,89.40
2018-06-12T00:37:43.491Z,89.70
2018-06-12T00:40:13.745Z,89.60
2018-06-12T00:45:13.910Z,89.70
2018-06-12T00:47:44.426Z,89.90
2018-06-12T00:50:14.809Z,89.70
2018-06-12T00:52:45.236Z,89.80
2018-06-12T00:55:15.552Z,89.80
2018-06-12T00:57:45.951Z,90.00
2018-06-12T01:00:16.801Z,90.00
2018-06-12T01:02:47.092Z,90.00
2018-06-12T01:05:17.511Z,90.00
2018-06-12T01:07:47.876Z,90.10
2018-06-12T01:10:18.166Z,90.10
2018-06-12T01:12:48.454Z,90.10
2018-06-12T01:15:18.723Z,90.10
2018-06-12T01:17:49.001Z,90.20
2018-06-12T01:20:19.262Z,90.30
2018-06-12T01:22:49.557Z,90.50
2018-06-12T01:27:49.717Z,90.10
2018-06-12T01:30:19.992Z,89.90
2018-06-12T01:32:50.306Z,90.10
2018-06-12T01:35:22.205Z,90.30
2018-06-12T01:37:52.500Z,90.40
2018-06-12T01:40:22.777Z,90.40
2018-06-12T01:42:53.098Z,90.50
2018-06-12T01:45:23.376Z,90.70
2018-06-12T01:47:54.130Z,90.60
2018-06-12T01:57:54.092Z,90.70
2018-06-12T02:02:54.237Z,90.90
2018-06-12T02:05:24.537Z,91.00
2018-06-12T02:07:54.857Z,91.00
2018-06-12T02:10:25.218Z,90.90
2018-06-12T02:12:55.517Z,91.10
2018-06-12T02:15:25.847Z,91.20
2018-06-12T02:17:56.144Z,91.30
2018-06-12T02:20:26.664Z,91.30
2018-06-12T02:22:57.387Z,91.40
2018-06-12T02:25:27.692Z,91.20
2018-06-12T02:27:58.056Z,91.30
2018-06-12T02:30:28.318Z,91.50
2018-06-12T02:32:58.630Z,91.60
2018-06-12T02:37:58.822Z,91.60
2018-06-12T02:40:29.117Z,91.60
2018-06-12T02:42:59.462Z,91.60
2018-06-12T02:45:29.795Z,91.50
2018-06-12T02:48:00.434Z,91.50
2018-06-12T02:50:30.708Z,91.60
2018-06-12T02:53:01.007Z,91.70
2018-06-12T02:55:31.344Z,91.80
2018-06-12T03:00:31.565Z,91.80
2018-06-12T03:03:01.913Z,91.80
2018-06-12T03:05:32.217Z,91.80
2018-06-12T03:08:02.496Z,91.80
2018-06-12T03:10:32.800Z,91.90
2018-06-12T03:13:03.199Z,91.90
2018-06-12T03:18:03.426Z,91.80
2018-06-12T03:20:44.754Z,91.70
2018-06-12T03:23:15.151Z,91.70
2018-06-12T03:25:49.869Z,91.50
2018-06-12T03:28:20.296Z,91.50
2018-06-12T03:35:50.525Z,91.70
2018-06-12T03:38:20.876Z,91.40
2018-06-12T03:40:51.207Z,91.30
2018-06-12T03:43:21.619Z,91.20
2018-06-12T03:45:51.952Z,91.40
2018-06-12T03:48:22.527Z,91.30
2018-06-12T03:50:52.828Z,91.40
2018-06-12T03:53:23.145Z,91.50
2018-06-12T03:55:53.530Z,91.30
2018-06-12T03:58:23.844Z,91.30
2018-06-12T04:00:54.173Z,91.30
2018-06-12T04:03:24.483Z,91.20
2018-06-12T04:05:54.765Z,91.20
2018-06-12T04:08:25.131Z,91.30
2018-06-12T04:10:55.415Z,91.40
2018-06-12T04:13:25.692Z,91.40
2018-06-12T04:15:56.017Z,91.40
2018-06-12T04:18:26.538Z,91.40
2018-06-12T04:20:56.817Z,91.40
2018-06-12T04:23:27.173Z,91.40
2018-06-12T04:25:57.469Z,91.40
2018-06-12T04:28:27.852Z,91.60
2018-06-12T04:30:58.139Z,91.60
2018-06-12T04:33:28.449Z,91.70
2018-06-12T04:35:58.750Z,91.70
2018-06-12T04:43:29.813Z,92.30
2018-06-12T04:48:30.164Z,92.90
2018-06-12T04:53:30.381Z,93.40
2018-06-12T04:56:00.688Z,93.70
2018-06-12T04:58:31.008Z,93.80
2018-06-12T05:01:01.296Z,94.30
2018-06-12T05:03:31.583Z,94.40
2018-06-12T05:06:01.896Z,94.40
2018-06-12T05:08:32.382Z,94.90
2018-06-12T05:11:02.682Z,95.50
2018-06-12T05:13:33.008Z,95.70
2018-06-12T05:16:03.322Z,95.80
2018-06-12T05:18:33.620Z,95.80
2018-06-12T05:21:03.938Z,95.90
2018-06-12T05:23:34.294Z,96.00
2018-06-12T05:26:04.651Z,96.10
2018-06-12T05:28:34.936Z,96.20
2018-06-12T05:36:05.206Z,96.10
2018-06-12T05:38:35.442Z,96.20
2018-06-12T05:41:06.045Z,96.10
2018-06-12T05:43:36.364Z,96.10
2018-06-12T05:48:36.830Z,95.60
2018-06-12T05:51:07.200Z,95.30
2018-06-12T05:53:37.494Z,95.10
2018-06-12T05:56:07.782Z,95.40
2018-06-12T06:01:07.988Z,95.60
2018-06-12T06:03:38.308Z,95.50
2018-06-12T06:06:08.612Z,95.50
2018-06-12T06:08:38.892Z,95.40
2018-06-12T06:11:09.208Z,95.50
2018-06-12T06:13:39.554Z,95.60
2018-06-12T06:18:40.304Z,95.50
2018-06-12T06:21:10.761Z,95.00
2018-06-12T06:23:41.036Z,95.00
2018-06-12T06:26:11.510Z,95.10
2018-06-12T06:28:41.874Z,95.20
2018-06-12T06:31:12.321Z,94.90
2018-06-12T06:38:42.403Z,94.60
2018-06-12T06:41:12.745Z,94.40
2018-06-12T06:43:43.068Z,93.80
2018-06-12T06:46:13.421Z,93.30
2018-06-12T06:48:44.254Z,93.10
2018-06-12T06:51:14.575Z,93.10
2018-06-12T06:53:44.897Z,92.40
2018-06-12T06:56:15.234Z,92.70
2018-06-12T06:58:45.550Z,92.60
2018-06-12T07:01:15.857Z,92.10
2018-06-12T07:03:46.128Z,92.40
2018-06-12T07:06:16.493Z,92.40
2018-06-12T07:08:46.872Z,92.10
2018-06-12T07:11:17.164Z,91.80
2018-06-12T07:13:47.444Z,92.10
2018-06-12T07:16:17.763Z,91.80
2018-06-12T07:18:48.090Z,91.00
2018-06-12T07:21:21.321Z,90.90
2018-06-12T07:23:51.870Z,91.10
2018-06-12T07:26:22.704Z,91.00
2018-06-12T07:28:53.033Z,91.00
2018-06-12T07:31:23.716Z,90.40
2018-06-12T07:33:54.127Z,90.20
2018-06-12T07:36:24.436Z,90.50
2018-06-12T07:38:54.766Z,90.70
2018-06-12T07:43:55.009Z,90.00
2018-06-12T07:48:55.754Z,88.50
2018-06-12T07:51:26.201Z,88.70
2018-06-12T07:53:56.739Z,87.00
2018-06-12T07:56:27.208Z,86.90
2018-06-12T07:58:57.468Z,86.10
2018-06-12T08:01:27.820Z,87.30
2018-06-12T08:03:58.330Z,87.10
2018-06-12T08:06:28.653Z,84.30
2018-06-12T08:08:58.973Z,82.30
2018-06-12T08:11:29.253Z,81.70
2018-06-12T08:13:59.613Z,82.50
2018-06-12T08:16:30.230Z,83.40
2018-06-12T08:19:00.728Z,81.60
2018-06-12T08:21:31.270Z,81.50
2018-06-12T08:24:01.685Z,83.70
2018-06-12T08:26:32.208Z,83.30
2018-06-12T08:29:02.620Z,83.70
2018-06-12T08:31:33.906Z,83.80
2018-06-12T08:34:05.237Z,83.80
2018-06-12T08:36:35.563Z,83.40
2018-06-12T08:39:08.302Z,82.90
2018-06-12T08:41:38.748Z,84.00
2018-06-12T08:44:09.093Z,83.50
2018-06-12T08:46:39.656Z,81.60
2018-06-12T08:51:41.032Z,82.20
2018-06-12T08:56:43.226Z,74.80
2018-06-12T08:59:14.146Z,74.60
2018-06-12T09:04:18.100Z,75.20
2018-06-12T09:06:48.594Z,75.70
2018-06-12T09:09:19.090Z,75.10
2018-06-12T09:11:50.170Z,76.00
2018-06-12T09:14:20.822Z,75.90
2018-06-12T09:16:51.179Z,77.40
2018-06-12T09:19:21.512Z,77.60
2018-06-12T09:21:51.881Z,76.00
2018-06-12T09:24:22.494Z,77.30
2018-06-12T09:26:54.135Z,79.30
2018-06-12T09:29:25.439Z,79.60
2018-06-12T09:31:57.645Z,78.20
2018-06-12T09:34:27.937Z,74.70
2018-06-12T09:36:58.305Z,75.50
2018-06-12T09:39:29.097Z,78.40
2018-06-12T09:41:59.906Z,77.50
2018-06-12T09:44:31.174Z,76.10
2018-06-12T09:47:01.477Z,76.00
2018-06-12T09:52:01.736Z,76.80
2018-06-12T09:54:32.489Z,76.20
2018-06-12T09:57:03.255Z,75.90
2018-06-12T09:59:34.382Z,76.40
2018-06-12T10:02:06.456Z,74.10
2018-06-12T10:04:36.789Z,74.00
2018-06-12T10:07:07.234Z,73.10
2018-06-12T10:09:37.560Z,74.40
2018-06-12T10:14:37.776Z,71.40
2018-06-12T10:17:08.200Z,71.10
2018-06-12T10:19:38.524Z,69.80
2018-06-12T10:22:09.553Z,70.10
2018-06-12T10:24:41.593Z,67.40
2018-06-12T10:27:13.069Z,67.00
2018-06-12T10:29:44.633Z,62.00
2018-06-12T10:32:16.100Z,60.70
2018-06-12T10:34:49.028Z,59.20
2018-06-12T10:37:22.615Z,60.90
2018-06-12T10:39:54.341Z,60.00
2018-06-12T10:42:24.656Z,59.90
2018-06-12T10:44:54.998Z,56.60
2018-06-12T10:49:56.626Z,54.30
2018-06-12T10:52:26.962Z,53.20
2018-06-12T10:54:57.509Z,53.60
2018-06-12T10:57:27.891Z,53.70
2018-06-12T10:59:58.147Z,54.30
2018-06-12T11:02:28.455Z,49.40
2018-06-12T11:04:58.730Z,50.40
2018-06-12T11:07:29.837Z,48.30
2018-06-12T11:10:00.249Z,49.30
2018-06-12T11:12:30.683Z,47.60
2018-06-12T11:15:01.024Z,49.80
2018-06-12T11:20:01.265Z,50.00
2018-06-12T11:25:01.653Z,48.70
2018-06-12T11:27:32.896Z,48.40
2018-06-12T11:30:03.794Z,46.40
2018-06-12T11:32:34.037Z,44.30
2018-06-12T11:35:04.332Z,43.70
2018-06-12T11:40:04.975Z,45.30
2018-06-12T11:42:35.265Z,44.40
2018-06-12T11:45:05.662Z,43.10
2018-06-12T11:47:35.961Z,43.00
2018-06-12T11:52:36.183Z,43.30
2018-06-12T11:55:07.122Z,41.50
2018-06-12T11:57:37.425Z,41.90
2018-06-12T12:00:07.737Z,42.20
2018-06-12T12:02:38.397Z,43.80
2018-06-12T12:05:08.694Z,41.30
2018-06-12T12:07:38.940Z,41.40
2018-06-12T12:10:09.216Z,42.20
2018-06-12T12:12:39.574Z,43.30
2018-06-12T12:15:09.915Z,42.40
2018-06-12T12:17:40.316Z,42.20
2018-06-12T12:20:10.625Z,41.60
2018-06-12T12:22:40.962Z,40.30
2018-06-12T12:25:11.352Z,39.10
2018-06-12T12:27:41.661Z,38.80
2018-06-12T12:32:41.988Z,38.80
2018-06-12T12:35:12.329Z,36.40
2018-06-12T12:37:42.734Z,37.00
2018-06-12T12:40:13.117Z,36.40
2018-06-12T12:42:43.453Z,35.50
2018-06-12T12:45:13.844Z,34.80
2018-06-12T12:47:44.273Z,32.70
2018-06-12T12:50:14.673Z,34.10
2018-06-12T12:52:45.061Z,33.90
2018-06-12T12:55:15.342Z,33.10
2018-06-12T12:57:45.698Z,33.50
2018-06-12T13:00:16.004Z,34.90
2018-06-12T13:02:46.470Z,34.40
2018-06-12T13:05:16.856Z,34.80
2018-06-12T13:07:47.264Z,33.30
2018-06-12T13:10:17.646Z,33.80
2018-06-12T13:12:48.052Z,33.90
2018-06-12T13:15:18.377Z,33.20
2018-06-12T13:17:48.688Z,32.00
2018-06-12T13:20:19.053Z,31.60
2018-06-12T13:22:49.334Z,32.80
2018-06-12T13:25:19.681Z,32.20
2018-06-12T13:27:49.993Z,29.50
2018-06-12T13:30:21.271Z,29.10
2018-06-12T13:32:51.608Z,30.10
2018-06-12T13:35:21.995Z,31.60
2018-06-12T13:37:52.400Z,30.30
2018-06-12T13:40:22.726Z,31.80
2018-06-12T13:42:52.985Z,30.80
2018-06-12T13:45:23.339Z,31.50
2018-06-12T13:47:53.600Z,32.00
2018-06-12T13:50:23.926Z,32.30
2018-06-12T13:52:54.207Z,31.30
2018-06-12T13:55:24.509Z,32.20
2018-06-12T13:57:54.830Z,30.60
2018-06-12T14:00:25.166Z,31.30
2018-06-12T14:02:55.491Z,32.00
2018-06-12T14:05:25.810Z,31.20
2018-06-12T14:07:56.159Z,32.30
2018-06-12T14:12:56.395Z,31.40
2018-06-12T14:17:56.594Z,32.70
2018-06-12T14:20:26.908Z,32.40
2018-06-12T14:22:57.519Z,32.30
2018-06-12T14:25:27.838Z,32.50
2018-06-12T14:27:58.150Z,32.60
2018-06-12T14:30:28.847Z,31.40
2018-06-12T14:32:59.137Z,31.50
2018-06-12T14:35:29.516Z,31.60
2018-06-12T14:40:29.790Z,31.40
2018-06-12T14:43:00.084Z,32.80
2018-06-12T14:45:30.414Z,32.90
2018-06-12T14:48:00.729Z,31.80
2018-06-12T14:50:31.049Z,31.70
2018-06-12T14:55:31.277Z,31.60
2018-06-12T14:58:01.589Z,30.60
2018-06-12T15:00:32.121Z,31.20
2018-06-12T15:03:02.400Z,32.40
2018-06-12T15:05:32.703Z,31.60
2018-06-12T15:10:33.057Z,32.90
2018-06-12T15:13:03.365Z,33.30
2018-06-12T15:15:33.782Z,35.50
2018-06-12T15:20:34.013Z,37.50
2018-06-12T15:28:04.246Z,41.10
2018-06-12T15:30:34.844Z,42.30
2018-06-12T15:33:05.182Z,43.10
2018-06-12T15:35:35.560Z,43.10
2018-06-12T15:40:35.832Z,42.70
2018-06-12T15:43:06.205Z,42.80
2018-06-12T15:45:36.544Z,43.00
2018-06-12T15:48:06.934Z,44.00
2018-06-12T15:50:37.263Z,44.00
2018-06-12T15:53:07.628Z,43.90
2018-06-12T15:55:37.955Z,43.50
2018-06-12T16:03:08.135Z,44.90
2018-06-12T16:05:38.416Z,45.20
2018-06-12T16:08:08.884Z,46.00
2018-06-12T16:10:39.208Z,46.50
2018-06-12T16:13:09.499Z,46.70
2018-06-12T16:15:39.783Z,48.10
2018-06-12T16:18:10.103Z,48.30
2018-06-12T16:20:40.376Z,49.60
2018-06-12T16:23:10.691Z,50.40
2018-06-12T16:28:10.880Z,51.80
2018-06-12T16:30:41.652Z,52.70
2018-06-12T16:33:12.463Z,52.40
2018-06-12T16:35:42.850Z,53.50
2018-06-12T16:38:13.202Z,53.90
2018-06-12T16:40:43.597Z,54.50
2018-06-12T16:43:13.894Z,54.40
2018-06-12T16:48:14.068Z,54.30
2018-06-12T16:50:44.656Z,54.40
2018-06-12T16:53:15.168Z,53.60
2018-06-12T16:55:45.548Z,52.70
2018-06-12T16:58:16.633Z,51.60
2018-06-12T17:00:47.128Z,51.40
2018-06-12T17:03:17.544Z,51.30
2018-06-12T17:05:48.094Z,51.80
2018-06-12T17:08:18.956Z,51.80
2018-06-12T17:10:49.409Z,51.30
2018-06-12T17:15:50.455Z,51.90
2018-06-12T17:18:20.868Z,52.00
2018-06-12T17:20:51.205Z,53.20
2018-06-12T17:23:21.654Z,52.60
2018-06-12T17:25:52.096Z,53.40
2018-06-12T17:28:22.591Z,54.50
2018-06-12T17:30:53.228Z,54.20
2018-06-12T17:35:53.521Z,55.20
2018-06-12T17:38:24.180Z,56.10
2018-06-12T17:40:54.554Z,56.20
2018-06-12T17:43:24.881Z,56.50
2018-06-12T17:45:55.388Z,56.80
2018-06-12T17:48:25.678Z,57.60
2018-06-12T17:50:56.230Z,58.20
2018-06-12T17:55:56.761Z,58.40
2018-06-12T17:58:27.497Z,58.90
2018-06-12T18:00:58.226Z,58.90
2018-06-12T18:03:29.198Z,59.30
2018-06-12T18:05:59.885Z,59.60
2018-06-12T18:08:30.256Z,60.90
2018-06-12T18:11:01.554Z,60.80
2018-06-12T18:13:32.022Z,61.90
2018-06-12T18:16:02.413Z,60.20
2018-06-12T18:18:32.776Z,59.70
2018-06-12T18:21:03.174Z,59.20
2018-06-12T18:23:33.855Z,59.60
2018-06-12T18:26:04.471Z,59.60
2018-06-12T18:28:35.037Z,59.90
2018-06-12T18:31:06.365Z,59.90
2018-06-12T18:33:36.703Z,60.10
2018-06-12T18:36:07.032Z,60.40
2018-06-12T18:38:37.365Z,60.70
2018-06-12T18:41:08.731Z,60.90
2018-06-12T18:43:39.037Z,61.20
2018-06-12T18:46:09.620Z,61.60
2018-06-12T18:48:39.906Z,62.10
2018-06-12T18:51:10.364Z,62.60
2018-06-12T18:53:40.625Z,62.60
2018-06-12T18:56:10.939Z,63.00
2018-06-12T18:58:41.218Z,62.60
2018-06-12T19:01:11.594Z,62.20
2018-06-12T19:03:41.946Z,62.70
2018-06-12T19:06:12.360Z,63.10
2018-06-12T19:08:42.737Z,63.00
2018-06-12T19:11:13.073Z,64.40
2018-06-12T19:13:43.727Z,63.20
2018-06-12T19:16:14.093Z,62.50
2018-06-12T19:18:44.395Z,63.40
2018-06-12T19:21:14.738Z,64.50
2018-06-12T19:23:45.073Z,64.40
2018-06-12T19:26:15.466Z,64.40
2018-06-12T19:28:45.868Z,65.00
2018-06-12T19:31:16.470Z,65.50
2018-06-12T19:33:46.833Z,65.50
2018-06-12T19:36:17.537Z,65.90
2018-06-12T19:38:47.955Z,66.50
2018-06-12T19:41:18.327Z,66.90
2018-06-12T19:43:48.670Z,66.90
2018-06-12T19:46:19.098Z,67.70
2018-06-12T19:48:49.479Z,68.20
2018-06-12T19:51:19.745Z,68.40
2018-06-12T19:53:50.108Z,68.10
2018-06-12T19:56:20.401Z,69.70
2018-06-12T19:58:50.704Z,69.00
2018-06-12T20:01:21.061Z,68.60
2018-06-12T20:03:51.469Z,68.00
2018-06-12T20:06:21.777Z,68.60
2018-06-12T20:08:52.425Z,69.20
2018-06-12T20:11:23.095Z,69.90
2018-06-12T20:13:53.425Z,68.60
2018-06-12T20:16:23.772Z,68.80
2018-06-12T20:18:54.156Z,70.10
2018-06-12T20:23:54.473Z,70.30
2018-06-12T20:26:25.021Z,70.90
2018-06-12T20:31:26.286Z,71.30
2018-06-12T20:33:56.604Z,72.40
2018-06-12T20:36:28.070Z,73.00
2018-06-12T20:38:58.488Z,72.20
2018-06-12T20:43:59.477Z,70.90
2018-06-12T20:46:29.824Z,70.40
2018-06-12T20:49:00.163Z,71.50
2018-06-12T20:51:30.564Z,71.80
2018-06-12T20:54:01.031Z,72.40
2018-06-12T20:56:31.721Z,71.80
2018-06-12T20:59:02.081Z,71.30
2018-06-12T21:01:32.481Z,70.80
2018-06-12T21:04:02.901Z,70.20
2018-06-12T21:06:33.233Z,70.50
2018-06-12T21:09:03.695Z,70.70
2018-06-12T21:11:34.028Z,70.80
2018-06-12T21:14:04.363Z,69.90
2018-06-12T21:16:34.689Z,70.50
2018-06-12T21:19:05.004Z,70.70
2018-06-12T21:21:35.312Z,70.60
2018-06-12T21:24:05.648Z,71.10
2018-06-12T21:26:35.921Z,70.90
2018-06-12T21:29:06.212Z,70.90
2018-06-12T21:31:36.780Z,71.30
2018-06-12T21:34:07.062Z,72.20
2018-06-12T21:36:37.362Z,73.20
2018-06-12T21:39:08.773Z,73.00
2018-06-12T21:41:39.141Z,73.20
2018-06-12T21:44:09.433Z,73.40
2018-06-12T21:46:39.704Z,73.30
2018-06-12T21:49:09.990Z,73.20
2018-06-12T21:51:40.304Z,74.10
2018-06-12T21:54:10.580Z,74.20
2018-06-12T21:56:40.902Z,74.10
2018-06-12T21:59:11.117Z,73.80
2018-06-12T22:04:11.337Z,74.00
2018-06-12T22:06:41.677Z,74.30
2018-06-12T22:09:11.926Z,75.20
2018-06-12T22:11:42.804Z,75.70
2018-06-12T22:14:13.186Z,76.50
2018-06-12T22:16:43.545Z,76.20
2018-06-12T22:19:14.378Z,75.60
2018-06-12T22:21:44.664Z,77.30
2018-06-12T22:24:14.998Z,76.90
2018-06-12T22:26:45.484Z,75.90
2018-06-12T22:29:15.845Z,75.50
2018-06-12T22:31:46.380Z,75.60
2018-06-12T22:34:16.803Z,75.60
2018-06-12T22:36:47.254Z,76.20
2018-06-12T22:39:17.580Z,77.50
2018-06-12T22:41:47.971Z,77.40
2018-06-12T22:44:18.258Z,77.00
2018-06-12T22:46:48.563Z,76.90
2018-06-12T22:49:19.393Z,77.30
2018-06-12T22:51:49.782Z,77.50
2018-06-12T22:54:20.141Z,77.50
2018-06-12T22:56:50.468Z,78.10
2018-06-12T22:59:20.776Z,78.70
2018-06-12T23:01:52.081Z,78.60
2018-06-12T23:04:22.420Z,78.30
2018-06-12T23:09:22.724Z,78.80
2018-06-12T23:11:53.100Z,78.70
2018-06-12T23:14:23.451Z,78.40
2018-06-12T23:16:53.750Z,78.50
2018-06-12T23:19:24.021Z,78.70
2018-06-12T23:22:01.852Z,79.10
2018-06-12T23:24:32.092Z,79.80
2018-06-12T23:27:02.395Z,80.20
2018-06-12T23:29:32.711Z,80.10
2018-06-12T23:32:03.344Z,80.50
2018-06-12T23:37:03.539Z,81.10
2018-06-12T23:39:33.826Z,80.60
2018-06-12T23:42:04.139Z,80.30
2018-06-12T23:44:34.422Z,80.10
2018-06-12T23:47:04.729Z,79.70
2018-06-12T23:49:34.997Z,79.80
2018-06-12T23:52:05.330Z,81.20
2018-06-12T23:57:05.490Z,82.40
2018-06-12T23:59:35.750Z,82.20
